Time;durP1;ratioP1;P1;durP2;ratioP2;P2;SDS_P1;SDS_P2;PMS_P1;PMS_P2;Temp;Humidity;BMP_temperature;BMP_pressure;BME280_temperature;BME280_humidity;BME280_pressure;Samples;Min_cycle;Max_cycle;Signal;HPM_P1;HPM_P2
2024/01/14 00:02:18;;;;;;;113.70;38.00;;;;;;;-145.18;100.00;47002.25;4974679;28;20023;-68
2024/01/14 00:04:44;;;;;;;103.50;33.67;;;;;;;-145.18;100.00;47004.19;4992218;28;20049;-68
2024/01/14 00:07:10;;;;;;;98.27;34.73;;;;;;;-145.18;100.00;47004.19;4992059;28;20038;-68
2024/01/14 00:09:35;;;;;;;104.83;35.07;;;;;;;-145.18;100.00;47004.19;4992150;28;20052;-68
2024/01/14 00:12:00;;;;;;;100.97;35.53;;;;;;;-145.18;100.00;47004.19;4992164;28;20030;-69
2024/01/14 00:14:26;;;;;;;109.60;35.70;;;;;;;-145.18;100.00;47004.19;4991385;28;20031;-69
2024/01/14 00:16:51;;;;;;;103.53;34.77;;;;;;;-145.18;100.00;47006.16;4992227;28;20030;-69
2024/01/14 00:19:17;;;;;;;103.67;33.07;;;;;;;-145.18;100.00;47004.19;4992252;28;20030;-69
2024/01/14 00:21:42;;;;;;;107.40;37.57;;;;;;;-145.18;100.00;47004.19;4990929;28;20560;-69
2024/01/14 00:24:07;;;;;;;110.23;39.63;;;;;;;-145.18;100.00;47004.19;4992238;28;20035;-69
2024/01/14 00:26:33;;;;;;;126.40;46.77;;;;;;;-145.18;100.00;47002.25;4998493;28;20065;-69
2024/01/14 00:28:59;;;;;;;110.70;38.23;;;;;;;-145.18;100.00;47004.19;4999243;28;20053;-69
2024/01/14 00:31:25;;;;;;;119.50;34.83;;;;;;;-145.18;100.00;47004.19;4999275;28;20025;-69
2024/01/14 00:33:51;;;;;;;109.33;36.53;;;;;;;-145.18;100.00;47004.19;4998606;28;20079;-69
2024/01/14 00:36:17;;;;;;;115.30;36.80;;;;;;;-145.18;100.00;47004.19;4998239;28;20366;-69
2024/01/14 00:38:42;;;;;;;108.83;35.10;;;;;;;-145.18;100.00;47008.09;4998703;28;20034;-69
2024/01/14 00:41:08;;;;;;;104.10;36.80;;;;;;;-145.18;100.00;47002.25;4998359;28;20315;-69
2024/01/14 00:43:33;;;;;;;102.13;35.00;;;;;;;-145.18;100.00;47006.16;4998494;28;20072;-69
2024/01/14 00:45:59;;;;;;;107.43;33.47;;;;;;;-145.18;100.00;47004.19;4998548;28;20033;-69
2024/01/14 00:48:24;;;;;;;105.93;35.70;;;;;;;-145.18;100.00;47006.16;4998708;28;20467;-69
2024/01/14 00:50:49;;;;;;;99.13;30.17;;;;;;;-145.18;100.00;47004.19;4998613;28;20040;-69
2024/01/14 00:53:15;;;;;;;108.63;34.77;;;;;;;-145.18;100.00;47006.16;4980815;28;20026;-69
2024/01/14 00:55:40;;;;;;;88.50;32.00;;;;;;;-145.18;100.00;47002.25;4998574;28;20070;-69
2024/01/14 00:58:05;;;;;;;105.10;37.03;;;;;;;-145.18;100.00;47000.28;4998181;28;20030;-69
2024/01/14 01:00:31;;;;;;;101.50;33.27;;;;;;;-145.18;100.00;47008.09;4997305;28;20064;-69
2024/01/14 01:02:56;;;;;;;98.47;34.23;;;;;;;-145.18;100.00;47004.19;4998353;28;20046;-69
2024/01/14 01:05:22;;;;;;;101.93;35.67;;;;;;;-145.18;100.00;47004.19;4998269;28;20022;-69
2024/01/14 01:07:48;;;;;;;83.47;30.33;;;;;;;-145.18;100.00;47008.09;4998153;28;20026;-69
2024/01/14 01:10:14;;;;;;;91.87;33.03;;;;;;;-145.18;100.00;47002.25;4998422;28;20105;-68
2024/01/14 01:12:39;;;;;;;103.13;36.23;;;;;;;-145.18;100.00;47002.25;4998316;28;20033;-69
2024/01/14 01:15:05;;;;;;;92.37;33.87;;;;;;;-145.18;100.00;47000.28;4997471;28;20026;-68
2024/01/14 01:17:32;;;;;;;105.07;33.47;;;;;;;-145.18;100.00;47008.09;4998368;28;20066;-69
2024/01/14 01:19:59;;;;;;;101.03;34.20;;;;;;;-145.18;100.00;47004.19;4998594;28;20649;-69
2024/01/14 01:22:24;;;;;;;96.57;35.17;;;;;;;-145.18;100.00;47004.19;4998008;28;20383;-69
2024/01/14 01:24:50;;;;;;;99.20;33.73;;;;;;;-145.18;100.00;47004.19;4997230;28;20259;-69
2024/01/14 01:27:15;;;;;;;89.17;31.93;;;;;;;-145.18;100.00;47002.25;4997852;28;20042;-68
2024/01/14 01:29:41;;;;;;;91.57;33.50;;;;;;;-145.18;100.00;47008.09;4998391;28;20495;-68
2024/01/14 01:32:06;;;;;;;109.30;36.80;;;;;;;-145.18;100.00;47004.19;4997085;28;20030;-69
2024/01/14 01:34:31;;;;;;;97.10;33.90;;;;;;;-145.18;100.00;47004.19;4998371;28;20401;-69
2024/01/14 01:36:57;;;;;;;110.97;36.73;;;;;;;-145.18;100.00;47004.19;4995301;28;20466;-71
2024/01/14 01:39:22;;;;;;;99.13;36.37;;;;;;;-145.18;100.00;47008.09;4995108;28;20037;-72
2024/01/14 01:41:49;;;;;;;107.80;39.30;;;;;;;-145.18;100.00;47004.19;4994683;28;20518;-72
2024/01/14 01:44:14;;;;;;;117.40;39.40;;;;;;;-145.18;100.00;47004.19;4995506;28;20081;-71
2024/01/14 01:46:40;;;;;;;112.37;37.40;;;;;;;-145.18;100.00;47002.25;4994920;28;20711;-72
2024/01/14 01:49:05;;;;;;;114.13;38.47;;;;;;;-145.18;100.00;47000.28;4982887;28;20444;-72
2024/01/14 01:51:31;;;;;;;109.67;39.27;;;;;;;-145.18;100.00;47000.28;4994842;28;20046;-72
2024/01/14 01:53:57;;;;;;;116.60;40.07;;;;;;;-145.18;100.00;47000.28;4976868;28;20042;-72
2024/01/14 01:56:24;;;;;;;111.53;36.93;;;;;;;-145.18;100.00;47000.28;4994582;28;20207;-72
2024/01/14 01:58:50;;;;;;;100.70;34.03;;;;;;;-145.18;100.00;47004.19;4994461;28;20345;-72
2024/01/14 02:01:15;;;;;;;106.70;38.07;;;;;;;-145.18;100.00;47002.25;4994700;28;20779;-72
2024/01/14 02:03:41;;;;;;;124.43;39.67;;;;;;;-145.18;100.00;47000.28;4994464;28;20022;-72
2024/01/14 02:06:09;;;;;;;118.90;39.00;;;;;;;-145.18;100.00;47002.25;4994577;28;20084;-72
2024/01/14 02:08:36;;;;;;;117.67;38.03;;;;;;;-145.18;100.00;47000.28;4994756;28;20271;-72
2024/01/14 02:11:01;;;;;;;118.50;39.43;;;;;;;-145.18;100.00;47002.25;4994601;28;20295;-72
2024/01/14 02:13:27;;;;;;;122.37;39.33;;;;;;;-145.18;100.00;46998.34;4994672;28;20716;-72
2024/01/14 02:15:52;;;;;;;104.63;38.23;;;;;;;-145.18;100.00;47004.19;4994538;28;20061;-72
2024/01/14 02:18:17;;;;;;;106.70;37.47;;;;;;;-145.18;100.00;47000.28;4993313;28;20117;-71
2024/01/14 02:20:43;;;;;;;112.00;36.57;;;;;;;-145.18;100.00;46996.38;4994067;28;20060;-72
2024/01/14 02:23:12;;;;;;;113.03;38.73;;;;;;;-145.18;100.00;47002.25;4994290;28;20037;-72
2024/01/14 02:25:38;;;;;;;94.80;33.90;;;;;;;-145.18;100.00;47002.25;4994435;28;20044;-72
2024/01/14 02:28:04;;;;;;;119.47;38.20;;;;;;;-145.18;100.00;47000.28;4993986;28;20744;-72
2024/01/14 02:30:30;;;;;;;94.27;34.37;;;;;;;-145.18;100.00;47000.28;4994142;28;20026;-72
2024/01/14 02:32:55;;;;;;;116.83;39.53;;;;;;;-145.18;100.00;46996.38;4992932;28;20105;-72
2024/01/14 02:35:20;;;;;;;109.47;39.33;;;;;;;-145.18;100.00;46998.34;4992895;28;20026;-72
2024/01/14 02:37:47;;;;;;;106.33;38.40;;;;;;;-145.18;100.00;46996.38;4993526;28;20149;-72
2024/01/14 02:40:13;;;;;;;99.13;34.23;;;;;;;-145.18;100.00;46998.34;4993997;28;20065;-72
2024/01/14 02:42:39;;;;;;;121.00;39.17;;;;;;;-145.18;100.00;46994.44;4994142;28;20323;-72
2024/01/14 02:45:05;;;;;;;111.90;36.03;;;;;;;-145.18;100.00;46994.44;4993811;28;20479;-72
2024/01/14 02:47:31;;;;;;;114.80;37.70;;;;;;;-145.18;100.00;46994.44;4993936;28;20295;-70
2024/01/14 02:49:56;;;;;;;108.40;36.40;;;;;;;-145.18;100.00;46996.38;4993567;28;20286;-70
2024/01/14 02:52:22;;;;;;;111.30;37.03;;;;;;;-145.18;100.00;46996.38;4992437;28;20034;-70
2024/01/14 02:54:48;;;;;;;107.80;38.10;;;;;;;-145.18;100.00;46992.47;4993712;28;20035;-70
2024/01/14 02:57:13;;;;;;;104.00;35.70;;;;;;;-145.18;100.00;46996.38;4993656;28;20084;-69
2024/01/14 02:59:39;;;;;;;103.17;35.90;;;;;;;-145.18;100.00;46996.38;4993510;28;20252;-70
2024/01/14 03:02:04;;;;;;;114.13;36.97;;;;;;;-145.18;100.00;46996.38;4992707;28;20064;-70
2024/01/14 03:04:29;;;;;;;114.77;40.27;;;;;;;-145.18;100.00;46996.38;4992197;28;20459;-69
2024/01/14 03:06:55;;;;;;;106.13;40.33;;;;;;;-145.18;100.00;46992.47;4992528;28;20135;-69
2024/01/14 03:09:21;;;;;;;105.23;37.63;;;;;;;-145.18;100.00;46996.38;4992399;28;20030;-70
2024/01/14 03:11:46;;;;;;;103.20;36.27;;;;;;;-145.18;100.00;46994.44;4971389;28;20042;-69
2024/01/14 03:14:12;;;;;;;111.87;38.90;;;;;;;-145.18;100.00;46994.44;4992989;28;20272;-69
2024/01/14 03:16:37;;;;;;;118.40;38.90;;;;;;;-145.18;100.00;46996.38;4975896;28;20030;-69
2024/01/14 03:19:03;;;;;;;117.50;38.83;;;;;;;-145.18;100.00;46996.38;4993291;28;20398;-70
2024/01/14 03:21:28;;;;;;;114.43;40.90;;;;;;;-145.18;100.00;46994.44;4993273;28;20086;-69
2024/01/14 03:23:53;;;;;;;115.57;36.30;;;;;;;-145.18;100.00;46990.53;4990646;28;20038;-70
2024/01/14 03:26:19;;;;;;;125.87;38.47;;;;;;;-145.18;100.00;46996.38;4976278;28;20057;-69
2024/01/14 03:28:44;;;;;;;111.97;37.43;;;;;;;-145.18;100.00;46992.47;4990041;28;20397;-69
2024/01/14 03:31:16;;;;;;;108.47;37.13;;;;;;;-145.18;100.00;46992.47;4992854;28;20482;-69
2024/01/14 03:33:42;;;;;;;105.73;35.43;;;;;;;-145.18;100.00;46996.38;4989073;28;20057;-69
2024/01/14 03:36:08;;;;;;;101.37;37.70;;;;;;;-145.18;100.00;46998.34;4990897;28;20362;-69
2024/01/14 03:38:34;;;;;;;115.77;39.40;;;;;;;-145.18;100.00;46998.34;4992649;28;20268;-69
2024/01/14 03:40:59;;;;;;;102.80;36.23;;;;;;;-145.18;100.00;46996.38;4980415;28;20268;-69
2024/01/14 03:43:24;;;;;;;102.40;36.17;;;;;;;-145.18;100.00;46998.34;4992103;28;20046;-70
2024/01/14 03:45:50;;;;;;;100.53;36.03;;;;;;;-145.18;100.00;46994.44;4992006;28;20034;-70
2024/01/14 03:48:15;;;;;;;118.27;37.07;;;;;;;-145.18;100.00;46996.38;4974794;28;20123;-70
2024/01/14 03:50:41;;;;;;;104.40;37.03;;;;;;;-145.18;100.00;46996.38;4992010;28;20030;-70
2024/01/14 03:53:07;;;;;;;109.73;37.87;;;;;;;-145.18;100.00;46992.47;4958800;28;20038;-69
2024/01/14 03:55:32;;;;;;;104.73;37.23;;;;;;;-145.18;100.00;46990.53;4991496;28;20038;-70
2024/01/14 03:57:58;;;;;;;97.17;34.33;;;;;;;-145.18;100.00;46990.53;4976561;28;20378;-70
2024/01/14 04:00:23;;;;;;;98.77;32.87;;;;;;;-145.18;100.00;46992.47;4991176;28;20030;-69
2024/01/14 04:02:49;;;;;;;107.90;33.10;;;;;;;-145.18;100.00;46990.53;4992195;28;20034;-70
2024/01/14 04:05:14;;;;;;;103.33;35.37;;;;;;;-145.18;100.00;46988.56;4992018;28;20390;-70
2024/01/14 04:07:39;;;;;;;104.30;32.67;;;;;;;-145.18;100.00;46990.53;4978799;28;20037;-70
2024/01/14 04:10:05;;;;;;;103.23;34.40;;;;;;;-145.18;100.00;46994.44;4991380;28;20463;-70
2024/01/14 04:12:30;;;;;;;100.77;34.33;;;;;;;-145.18;100.00;46992.47;4974666;28;20033;-70
2024/01/14 04:14:56;;;;;;;95.20;32.63;;;;;;;-145.18;100.00;46992.47;4994309;28;20039;-70
2024/01/14 04:17:21;;;;;;;101.57;34.37;;;;;;;-145.18;100.00;46992.47;4992757;28;20620;-69
2024/01/14 04:19:46;;;;;;;98.40;34.23;;;;;;;-145.18;100.00;46990.53;4990130;28;20506;-70
2024/01/14 04:22:12;;;;;;;91.33;29.60;;;;;;;-145.18;100.00;46984.66;4991740;28;20037;-69
2024/01/14 04:24:38;;;;;;;98.77;33.43;;;;;;;-145.18;100.00;46990.53;4992087;28;20039;-69
2024/01/14 04:27:04;;;;;;;98.20;33.43;;;;;;;-145.18;100.00;46990.53;4991649;28;20038;-69
2024/01/14 04:29:29;;;;;;;97.57;33.53;;;;;;;-145.18;100.00;46988.56;4992281;28;20403;-69
2024/01/14 04:31:54;;;;;;;102.70;34.63;;;;;;;-145.18;100.00;46990.53;4991114;28;20497;-70
2024/01/14 04:34:20;;;;;;;97.10;34.60;;;;;;;-145.18;100.00;46986.63;4992153;28;20042;-70
2024/01/14 04:36:46;;;;;;;90.83;29.83;;;;;;;-145.18;100.00;46986.63;4974412;28;20058;-70
2024/01/14 04:39:12;;;;;;;91.63;31.53;;;;;;;-145.18;100.00;46984.66;4981534;28;20307;-70
2024/01/14 04:41:37;;;;;;;71.13;25.70;;;;;;;-145.18;100.00;46982.72;4974364;28;20471;-70
2024/01/14 04:44:02;;;;;;;92.97;31.17;;;;;;;-145.18;100.00;46984.66;4991743;28;20509;-69
2024/01/14 04:46:28;;;;;;;98.10;33.20;;;;;;;-145.18;100.00;46984.66;4974146;28;20058;-69
2024/01/14 04:48:54;;;;;;;69.53;25.23;;;;;;;-145.18;100.00;46980.75;4991576;28;20034;-69
2024/01/14 04:51:19;;;;;;;86.97;29.27;;;;;;;-145.18;100.00;46984.66;4991474;28;20019;-69
2024/01/14 04:53:45;;;;;;;90.33;30.77;;;;;;;-145.18;100.00;46980.75;4992009;28;20271;-69
2024/01/14 04:56:10;;;;;;;94.07;32.10;;;;;;;-145.18;100.00;46976.84;4990919;28;20470;-69
2024/01/14 04:58:36;;;;;;;102.10;32.37;;;;;;;-145.18;100.00;46982.72;4991883;28;20117;-69
2024/01/14 05:01:02;;;;;;;93.03;30.80;;;;;;;-145.18;100.00;46982.72;4991221;28;20031;-70
2024/01/14 05:03:27;;;;;;;89.83;30.93;;;;;;;-145.18;100.00;46984.66;4998315;28;20084;-69
2024/01/14 05:05:53;;;;;;;92.80;31.23;;;;;;;-145.18;100.00;46984.66;4991543;28;20034;-69
2024/01/14 05:08:18;;;;;;;92.57;29.40;;;;;;;-145.18;100.00;46984.66;4997780;28;20032;-69
2024/01/14 05:10:43;;;;;;;102.47;31.03;;;;;;;-145.18;100.00;46984.66;4973889;28;20030;-69
2024/01/14 05:13:09;;;;;;;86.73;29.53;;;;;;;-145.18;100.00;46980.75;4971925;28;20023;-69
2024/01/14 05:15:34;;;;;;;93.93;29.80;;;;;;;-145.18;100.00;46980.75;4995013;28;20045;-70
2024/01/14 05:18:01;;;;;;;100.47;31.03;;;;;;;-145.18;100.00;46980.75;4995293;28;20126;-70
2024/01/14 05:20:26;;;;;;;104.37;33.30;;;;;;;-145.18;100.00;46978.81;4977681;28;20034;-69
2024/01/14 05:22:52;;;;;;;77.23;27.83;;;;;;;-145.18;100.00;46980.75;4995141;28;20291;-70
2024/01/14 05:25:17;;;;;;;88.10;29.33;;;;;;;-145.18;100.00;46976.84;4994925;28;20060;-70
2024/01/14 05:27:42;;;;;;;83.87;26.93;;;;;;;-145.18;100.00;46980.75;4977202;28;20038;-70
2024/01/14 05:30:08;;;;;;;83.10;28.37;;;;;;;-145.18;100.00;46984.66;4994878;28;20161;-70
2024/01/14 05:32:34;;;;;;;88.70;29.97;;;;;;;-145.18;100.00;46976.84;4995172;28;20030;-70
2024/01/14 05:34:59;;;;;;;78.87;27.60;;;;;;;-145.18;100.00;46976.84;4993215;28;20049;-69
2024/01/14 05:37:24;;;;;;;88.33;30.03;;;;;;;-145.18;100.00;46980.75;4994765;28;20101;-70
2024/01/14 05:39:50;;;;;;;95.80;30.10;;;;;;;-145.18;100.00;46972.94;4995463;28;20037;-69
2024/01/14 05:42:15;;;;;;;93.83;30.43;;;;;;;-145.18;100.00;46980.75;4993518;28;20706;-69
2024/01/14 05:44:41;;;;;;;91.10;31.17;;;;;;;-145.18;100.00;46982.72;4994628;28;20030;-69
2024/01/14 05:47:06;;;;;;;101.40;29.83;;;;;;;-145.18;100.00;46974.91;4995068;28;20525;-70
2024/01/14 05:49:32;;;;;;;85.60;27.43;;;;;;;-145.18;100.00;46978.81;4995036;28;20109;-70
2024/01/14 05:51:57;;;;;;;77.27;26.70;;;;;;;-145.18;100.00;46980.75;4993601;28;20476;-70
2024/01/14 05:54:23;;;;;;;83.10;27.87;;;;;;;-145.18;100.00;46974.91;4994979;28;20038;-70
2024/01/14 05:56:48;;;;;;;81.03;28.50;;;;;;;-145.18;100.00;46974.91;4994425;28;20463;-69
2024/01/14 05:59:14;;;;;;;95.17;31.13;;;;;;;-145.18;100.00;46971.00;4993419;28;20038;-70
2024/01/14 06:01:39;;;;;;;90.10;30.20;;;;;;;-145.18;100.00;46976.84;4994690;28;20030;-70
2024/01/14 06:04:05;;;;;;;88.27;30.97;;;;;;;-145.18;100.00;46982.72;4993505;28;20044;-69
2024/01/14 06:06:30;;;;;;;90.63;31.13;;;;;;;-145.18;100.00;46976.84;4993622;28;20027;-70
2024/01/14 06:08:55;;;;;;;85.50;29.27;;;;;;;-145.18;100.00;46974.91;4994096;28;20104;-70
2024/01/14 06:11:21;;;;;;;91.87;30.30;;;;;;;-145.18;100.00;46980.75;4993228;28;20109;-69
2024/01/14 06:13:46;;;;;;;83.37;27.17;;;;;;;-145.18;100.00;46980.75;4994409;28;20038;-70
2024/01/14 06:16:12;;;;;;;92.23;29.53;;;;;;;-145.18;100.00;46980.75;4994348;28;20562;-70
2024/01/14 06:18:39;;;;;;;87.83;31.80;;;;;;;-145.18;100.00;46980.75;4980001;28;20041;-70
2024/01/14 06:21:05;;;;;;;92.13;31.53;;;;;;;-145.18;100.00;46974.91;4990903;28;20030;-70
2024/01/14 06:23:30;;;;;;;97.00;31.97;;;;;;;-145.18;100.00;46974.91;4978097;28;20275;-71
2024/01/14 06:25:56;;;;;;;90.33;30.57;;;;;;;-145.18;100.00;46974.91;4994504;28;20057;-70
2024/01/14 06:28:21;;;;;;;92.70;31.73;;;;;;;-145.18;100.00;46974.91;4994663;28;20046;-70
2024/01/14 06:30:47;;;;;;;93.10;31.33;;;;;;;-145.18;100.00;46980.75;4996752;28;20034;-69
2024/01/14 06:33:13;;;;;;;85.40;28.03;;;;;;;-145.18;100.00;46974.91;4976184;28;20058;-69
2024/01/14 06:35:38;;;;;;;92.47;29.27;;;;;;;-145.18;100.00;46976.84;4993852;28;20343;-69
2024/01/14 06:38:03;;;;;;;101.67;34.27;;;;;;;-145.18;100.00;46980.75;4993619;28;20100;-69
2024/01/14 06:40:29;;;;;;;86.37;29.10;;;;;;;-145.18;100.00;46984.66;4992055;28;20030;-69
2024/01/14 06:42:55;;;;;;;93.83;30.37;;;;;;;-145.18;100.00;46974.91;4992790;28;20439;-70
2024/01/14 06:45:21;;;;;;;89.47;29.37;;;;;;;-145.18;100.00;46976.84;4993860;28;20041;-71
2024/01/14 06:47:46;;;;;;;95.90;31.30;;;;;;;-145.18;100.00;46978.81;4993571;28;20041;-69
2024/01/14 06:50:13;;;;;;;78.77;27.80;;;;;;;-145.18;100.00;46976.84;4993539;28;20597;-70
2024/01/14 06:52:38;;;;;;;90.00;28.87;;;;;;;-145.18;100.00;46976.84;4993285;28;20036;-68
2024/01/14 06:55:05;;;;;;;80.43;24.50;;;;;;;-145.18;100.00;46976.84;4993292;28;20640;-69
2024/01/14 06:57:31;;;;;;;91.57;29.40;;;;;;;-145.18;100.00;46976.84;4984957;28;20169;-69
2024/01/14 06:59:59;;;;;;;82.47;27.80;;;;;;;-145.18;100.00;46982.72;4992972;28;20291;-69
2024/01/14 07:02:24;;;;;;;97.57;28.17;;;;;;;-145.18;100.00;46976.84;4992801;28;20292;-69
2024/01/14 07:04:50;;;;;;;88.33;29.67;;;;;;;-145.18;100.00;46976.84;4991056;28;20760;-69
2024/01/14 07:07:15;;;;;;;84.40;29.67;;;;;;;-145.18;100.00;46972.94;4993150;28;20470;-69
2024/01/14 07:09:40;;;;;;;75.77;24.23;;;;;;;-145.18;100.00;46980.75;4988562;28;20061;-69
2024/01/14 07:12:06;;;;;;;85.87;28.80;;;;;;;-145.18;100.00;46978.81;4991989;28;20478;-69
2024/01/14 07:14:32;;;;;;;87.80;27.80;;;;;;;-145.18;100.00;46976.84;4992505;28;20033;-69
2024/01/14 07:16:57;;;;;;;88.80;28.43;;;;;;;-145.18;100.00;46976.84;5000780;28;20030;-69
2024/01/14 07:19:22;;;;;;;81.27;27.47;;;;;;;-145.18;100.00;46984.66;4991673;28;20096;-69
2024/01/14 07:21:48;;;;;;;79.13;24.67;;;;;;;-145.18;100.00;46986.63;4991518;28;20046;-69
2024/01/14 07:24:13;;;;;;;81.07;28.20;;;;;;;-145.18;100.00;46980.75;4992511;28;20041;-69
2024/01/14 07:26:38;;;;;;;83.53;28.13;;;;;;;-145.18;100.00;46976.84;4989093;28;20049;-69
2024/01/14 07:29:04;;;;;;;94.87;30.57;;;;;;;-145.18;100.00;46982.72;4989369;28;20413;-69
2024/01/14 07:31:32;;;;;;;89.83;29.27;;;;;;;-145.18;100.00;46984.66;4990565;28;20050;-70
2024/01/14 07:33:58;;;;;;;94.27;28.73;;;;;;;-145.18;100.00;46980.75;4991105;28;20072;-69
2024/01/14 07:36:24;;;;;;;84.83;28.03;;;;;;;-145.18;100.00;46982.72;4985371;28;20300;-69
2024/01/14 07:38:53;;;;;;;84.60;27.37;;;;;;;-145.18;100.00;46982.72;4990749;28;20038;-69
2024/01/14 07:41:19;;;;;;;83.37;27.10;;;;;;;-145.18;100.00;46976.84;4991709;28;20287;-69
2024/01/14 07:43:44;;;;;;;83.23;29.03;;;;;;;-145.18;100.00;46976.84;4990855;28;20303;-69
2024/01/14 07:46:10;;;;;;;83.57;25.93;;;;;;;-145.18;100.00;46984.66;4985633;28;20069;-69
2024/01/14 07:48:36;;;;;;;84.70;26.97;;;;;;;-145.18;100.00;46982.72;4985787;28;20075;-69
2024/01/14 07:51:03;;;;;;;81.37;27.67;;;;;;;-145.18;100.00;46982.72;4983304;28;20763;-69
2024/01/14 07:53:28;;;;;;;78.47;25.23;;;;;;;-145.18;100.00;46984.66;4979490;28;20093;-69
2024/01/14 07:55:54;;;;;;;78.53;26.50;;;;;;;-145.18;100.00;46982.72;4967141;28;20288;-69
2024/01/14 07:58:19;;;;;;;81.43;26.53;;;;;;;-145.18;100.00;46980.75;4973663;28;20108;-69
2024/01/14 08:00:45;;;;;;;87.60;29.07;;;;;;;-145.18;100.00;46978.81;4983515;28;20034;-69
2024/01/14 08:03:11;;;;;;;68.30;23.93;;;;;;;-145.18;100.00;46976.84;4988363;28;20066;-69
2024/01/14 08:05:38;;;;;;;82.13;25.73;;;;;;;-145.18;100.00;46982.72;4984641;28;20026;-69
2024/01/14 08:08:04;;;;;;;83.50;27.05;;;;;;;-145.18;100.00;46984.66;4979467;28;20287;-69
2024/01/14 08:10:30;;;;;;;79.45;26.20;;;;;;;-145.18;100.00;46974.91;4988405;28;20055;-69
2024/01/14 08:12:56;;;;;;;80.40;25.03;;;;;;;-145.18;100.00;46974.91;4987899;28;20058;-70
2024/01/14 08:15:22;;;;;;;78.90;27.07;;;;;;;-145.18;100.00;46976.84;4988437;28;20038;-69
2024/01/14 08:17:47;;;;;;;79.53;27.27;;;;;;;-145.18;100.00;46980.75;4987734;28;20034;-69
2024/01/14 08:20:13;;;;;;;77.97;25.67;;;;;;;-145.18;100.00;46974.91;4988424;28;20828;-70
2024/01/14 08:22:39;;;;;;;79.83;26.57;;;;;;;-145.18;100.00;46976.84;4987473;28;20046;-69
2024/01/14 08:25:05;;;;;;;84.30;27.27;;;;;;;-145.18;100.00;46972.94;4987317;28;20034;-69
2024/01/14 08:27:31;;;;;;;78.13;25.00;;;;;;;-145.18;100.00;46971.00;4984746;28;20637;-70
2024/01/14 08:29:57;;;;;;;86.03;26.03;;;;;;;-145.18;100.00;46972.94;4988104;28;20276;-69
2024/01/14 08:32:22;;;;;;;93.10;28.10;;;;;;;-145.18;100.00;46976.84;4986468;28;20838;-70
2024/01/14 08:34:48;;;;;;;88.83;30.63;;;;;;;-145.18;100.00;46971.00;4987354;28;20181;-70
2024/01/14 08:37:13;;;;;;;82.70;29.17;;;;;;;-145.18;100.00;46967.09;4985954;28;20062;-70
2024/01/14 08:39:39;;;;;;;95.00;28.30;;;;;;;-145.18;100.00;46965.13;4987349;28;20038;-70
2024/01/14 08:42:04;;;;;;;82.77;28.63;;;;;;;-145.18;100.00;46957.31;4987174;28;20049;-70
2024/01/14 08:44:29;;;;;;;91.97;30.57;;;;;;;-145.18;100.00;46965.13;4986663;28;20038;-70
2024/01/14 08:46:55;;;;;;;84.63;28.20;;;;;;;-145.18;100.00;46965.13;4990644;28;20037;-70
2024/01/14 08:49:21;;;;;;;82.83;27.57;;;;;;;-145.18;100.00;46959.25;4993114;28;20026;-70
2024/01/14 08:51:46;;;;;;;96.27;31.37;;;;;;;-145.18;100.00;46955.34;4992212;28;20115;-70
2024/01/14 08:54:12;;;;;;;86.17;30.33;;;;;;;-145.18;100.00;46957.31;4991601;28;20311;-70
2024/01/14 08:56:37;;;;;;;94.57;28.17;;;;;;;-145.18;100.00;46955.34;4992040;28;20439;-70
2024/01/14 08:59:03;;;;;;;85.37;29.30;;;;;;;-145.18;100.00;46949.50;4990845;28;20498;-70
2024/01/14 09:01:29;;;;;;;98.73;30.27;;;;;;;-145.18;100.00;46951.44;4989721;28;20049;-70
2024/01/14 09:03:54;;;;;;;88.57;31.27;;;;;;;-145.18;100.00;46945.59;4990635;28;20280;-70
2024/01/14 09:06:20;;;;;;;95.27;31.00;;;;;;;-145.18;100.00;46947.53;4973916;28;20084;-70
2024/01/14 09:08:45;;;;;;;79.43;26.47;;;;;;;-145.18;100.00;46943.63;4991323;28;20039;-70
2024/01/14 09:11:11;;;;;;;94.93;31.37;;;;;;;-145.18;100.00;46943.63;4991672;28;20167;-70
2024/01/14 09:13:36;;;;;;;86.43;31.63;;;;;;;-145.18;100.00;46939.72;4991198;28;20061;-71
2024/01/14 09:16:02;;;;;;;89.53;29.87;;;;;;;-145.18;100.00;46945.59;4990435;28;20042;-71
2024/01/14 09:18:27;;;;;;;87.33;29.53;;;;;;;-145.18;100.00;46945.59;4974048;28;20097;-71
2024/01/14 09:20:53;;;;;;;90.27;30.17;;;;;;;-145.18;100.00;46941.69;4991910;28;20407;-71
2024/01/14 09:23:19;;;;;;;80.57;27.50;;;;;;;-145.18;100.00;46939.72;4991430;28;20046;-70
2024/01/14 09:25:45;;;;;;;98.60;32.07;;;;;;;-145.18;100.00;46939.72;4993983;28;20177;-71
2024/01/14 09:28:10;;;;;;;91.03;27.90;;;;;;;-145.18;100.00;46937.78;4993795;28;20780;-71
2024/01/14 09:30:35;;;;;;;94.63;31.50;;;;;;;-145.18;100.00;46937.78;4995685;28;20084;-71
2024/01/14 09:33:01;;;;;;;94.37;28.97;;;;;;;-145.18;100.00;46935.81;4995246;28;20030;-70
2024/01/14 09:35:26;;;;;;;94.17;32.30;;;;;;;-145.18;100.00;46939.72;4995119;28;20026;-70
2024/01/14 09:37:52;;;;;;;94.73;30.53;;;;;;;-145.18;100.00;46941.69;4994845;28;20449;-70
2024/01/14 09:40:17;;;;;;;94.10;30.90;;;;;;;-145.18;100.00;46937.78;4994741;28;20046;-70
2024/01/14 09:42:44;;;;;;;93.83;29.87;;;;;;;-145.18;100.00;46939.72;4981954;28;20113;-70
2024/01/14 09:45:10;;;;;;;91.80;29.97;;;;;;;-145.18;100.00;46935.81;4993098;28;20058;-70
2024/01/14 09:47:37;;;;;;;91.07;30.13;;;;;;;-145.18;100.00;46935.81;4996562;28;20740;-70
2024/01/14 09:50:04;;;;;;;91.37;26.63;;;;;;;-145.18;100.00;46937.78;4994663;28;20103;-70
2024/01/14 09:52:33;;;;;;;86.00;28.27;;;;;;;-145.18;100.00;46933.88;4993184;28;20691;-70
2024/01/14 09:54:58;;;;;;;81.40;27.00;;;;;;;-145.18;100.00;46937.78;4993867;28;20296;-70
2024/01/14 09:57:25;;;;;;;89.17;30.30;;;;;;;-145.18;100.00;46937.78;4976483;28;20887;-71
2024/01/14 09:59:51;;;;;;;94.00;29.43;;;;;;;-145.18;100.00;46939.72;4992586;28;20258;-72
2024/01/14 10:02:18;;;;;;;84.93;27.97;;;;;;;-145.18;100.00;46937.78;4984482;28;20319;-71
2024/01/14 10:04:44;;;;;;;79.37;26.57;;;;;;;-145.18;100.00;46933.88;4992202;28;20837;-71
2024/01/14 10:07:10;;;;;;;84.83;26.80;;;;;;;-145.18;100.00;46935.81;4985637;28;20359;-71
2024/01/14 10:09:39;;;;;;;86.83;27.63;;;;;;;-145.18;100.00;46937.78;4985658;28;20018;-71
2024/01/14 10:12:08;;;;;;;80.17;27.73;;;;;;;-145.18;100.00;46933.88;4983133;28;20396;-71
2024/01/14 10:14:34;;;;;;;73.60;26.13;;;;;;;-145.18;100.00;46941.69;4985760;28;21123;-71
2024/01/14 10:17:00;;;;;;;74.30;23.77;;;;;;;-145.18;100.00;46933.88;4991668;28;20334;-70
2024/01/14 10:19:26;;;;;;;77.07;24.97;;;;;;;-145.18;100.00;46937.78;4985338;28;20257;-71
2024/01/14 10:21:53;;;;;;;65.90;22.43;;;;;;;-145.18;100.00;46939.72;4989912;28;20442;-71
2024/01/14 10:24:20;;;;;;;67.50;23.87;;;;;;;-145.18;100.00;46937.78;4992229;28;20030;-70
2024/01/14 10:26:45;;;;;;;70.37;23.83;;;;;;;-145.18;100.00;46939.72;4988897;28;20355;-71
2024/01/14 10:29:11;;;;;;;69.10;24.10;;;;;;;-145.18;100.00;46935.81;4992048;28;20355;-70
2024/01/14 10:31:36;;;;;;;62.27;23.37;;;;;;;-145.18;100.00;46935.81;4993867;28;20030;-70
2024/01/14 10:34:02;;;;;;;59.33;20.40;;;;;;;-145.18;100.00;46935.81;4993753;28;20038;-70
2024/01/14 10:36:28;;;;;;;60.17;21.90;;;;;;;-145.18;100.00;46928.00;4993102;28;20054;-71
2024/01/14 10:38:59;;;;;;;85.87;30.27;;;;;;;-145.18;100.00;46935.81;4992285;28;21147;-70
2024/01/14 10:41:25;;;;;;;76.40;25.23;;;;;;;-145.18;100.00;46929.97;4990551;28;20105;-70
2024/01/14 10:43:51;;;;;;;72.23;24.17;;;;;;;-145.18;100.00;46935.81;4989707;28;20279;-70
2024/01/14 10:46:16;;;;;;;77.00;25.43;;;;;;;-145.18;100.00;46933.88;4986448;28;20276;-70